Salt Lake City International Airport
KSLC : now visible

Airfield :











YOU CAN JOIN US ON...

 
LOGIN :

Register | Disclaimer

   EN    FR    IT 

 









Legend :    VFR   Marginal VFR   IFR   Intensive IFR   Very Intensive IFR
Visi :
Ceiling :
>= 8 km
>= 3000ft
5 to 8 km
1000 to 3000 ft
1500m to 5 km
500 to 1000 ft
800 to 1500m
200 to 500 ft
< 800m
< 200 ft
Symbols :   Thunderstorms  Fog  Heavy snow  Heavy precipitations  Wind > 20 kt






- Airport Elevation : 4227 ft
- IATA code : SLC


KSLC - Salt Lake City International

CURRENT METAR :
  • 120254Z 12007KT 10SM FEW035 OVC060 03/M02 A3018 RMK AO2 SLP231 T00281017 55000

EXPIRED METARs :
  • 120154Z 15004KT 9SM FEW050 OVC060 03/M02 A3018 RMK AO2 SLP230 T00281017
  • 120054Z 15007KT 8SM FEW048 OVC060 03/M01 A3018 RMK AO2 SLP230 T00281011

TAF KSLC
Valid from the 12 at 03:00 until the 13 at 06:00 UTC


120235Z 1203/1306 13007KT P6SM SCT050 OVC060
FM121200 13008KT P6SM VCSH SCT040 BKN050 OVC100
FM121700 16010KT 6SM RA BR SCT015 BKN025 OVC050



MET'MAP, your aeronautical weather chart ! - Copyright ORBIFLY December 2007 - Disclaimer

ORBIFLY MET'MAP TEAM :

Programming & Development : Alexandra Zaïnal
Concept & original design : Baudouin d'Aumeries
Assistance for programming : Marc-Olivier Méhu
Technical & hardware support : Manuel Goepfert

Contact : metmap@orbifly.com




SOURCES & CREDITS :

   NOAA       Earth
Advisory